KART/ART METAR and TAF weather

Enter ICAO airport designator
Station Type Date Time Source
KART METAR 2019/08/22 01:56 UTC NOAA

KART 220156Z AUTO 00000KT 10SM CLR 21/18 A2981 RMK AO2 SLP089 T02060178


Station Type Date Time Source
KART Decoded METAR 2019/08/22 01:56 UTC NOAA

Station name not available
Aug 21, 2019 - 09:56 PM EDT / 2019.08.22 0156 UTC
Wind: Calm:0
Visibility: 10 mile(s):0
Sky conditions: clear
Temperature: 69.1 F (20.6 C)
Dew Point: 64.0 F (17.8 C)
Relative Humidity: 83%
Pressure (altimeter): 29.81 in. Hg (1009 hPa)
ob: KART 220156Z AUTO 00000KT 10SM CLR 21/18 A2981 RMK AO2 SLP089 T02060178
cycle: 2

Station Type Date Time Source
KART TAF 2019/08/21 21:03 UTC NOAA

TAF
AMD KART 212100Z 2121/2218 26012KT P6SM FEW025
FM220100 21006KT P6SM VCSH BKN050
FM220800 26006KT P6SM SCT040
FM221600 26012G18KT P6SM SCT250

Example: see airport list